Time;durP1;ratioP1;P1;durP2;ratioP2;P2;SDS_P1;SDS_P2;PMS_P1;PMS_P2;Temp;Humidity;BMP_temperature;BMP_pressure;BME280_temperature;BME280_humidity;BME280_pressure;Samples;Min_cycle;Max_cycle;Signal;HPM_P1;HPM_P2
2024/04/19 00:00:48;;;;;;;3.17;2.97;;;;;;;;;;5384980;26;20007;-78
2024/04/19 00:03:16;;;;;;;3.22;3.03;;;;;;;;;;5380543;26;20009;-79
2024/04/19 00:05:44;;;;;;;3.38;3.08;;;;;;;;;;5376627;26;20016;-79
2024/04/19 00:08:11;;;;;;;3.50;3.25;;;;;;;;;;5381640;26;20416;-78
2024/04/19 00:10:39;;;;;;;3.75;3.40;;;;;;;;;;5376657;26;20008;-79
2024/04/19 00:13:06;;;;;;;3.42;3.10;;;;;;;;;;5382061;26;20023;-79
2024/04/19 00:15:34;;;;;;;3.97;3.58;;;;;;;;;;5383864;26;20000;-78
2024/04/19 00:18:01;;;;;;;3.45;3.15;;;;;;;;;;5383725;26;20000;-79
2024/04/19 00:20:29;;;;;;;4.68;3.30;;;;;;;;;;5376192;26;20005;-78
2024/04/19 00:22:56;;;;;;;3.92;3.53;;;;;;;;;;5377343;26;20004;-79
2024/04/19 00:25:23;;;;;;;4.30;4.00;;;;;;;;;;5384115;26;20004;-79
2024/04/19 00:27:51;;;;;;;6.55;3.90;;;;;;;;;;5383910;26;20015;-78
2024/04/19 00:30:18;;;;;;;4.93;3.70;;;;;;;;;;5383652;26;20823;-78
2024/04/19 00:32:46;;;;;;;4.18;3.85;;;;;;;;;;5376363;26;20001;-78
2024/04/19 00:35:24;;;;;;;5.20;3.58;;;;;;;;;;5369139;26;20420;-78
2024/04/19 00:37:52;;;;;;;5.18;3.60;;;;;;;;;;5383267;26;20466;-78
2024/04/19 00:40:19;;;;;;;21.60;8.13;;;;;;;;;;5382033;26;20571;-79
2024/04/19 00:42:49;;;;;;;6.57;3.80;;;;;;;;;;5384187;26;20019;-78
2024/04/19 00:45:33;;;;;;;3.72;3.40;;;;;;;;;;5380924;26;20074;-79
2024/04/19 00:48:02;;;;;;;3.72;3.25;;;;;;;;;;5384187;26;20015;-79
2024/04/19 00:50:31;;;;;;;5.97;3.60;;;;;;;;;;5375198;26;20005;-78
2024/04/19 00:53:02;;;;;;;4.97;2.92;;;;;;;;;;5378435;26;20004;-79
2024/04/19 00:55:31;;;;;;;5.00;3.60;;;;;;;;;;5382526;26;20015;-78
2024/04/19 00:57:59;;;;;;;4.85;3.67;;;;;;;;;;5374806;26;20001;-78
2024/04/19 01:00:27;;;;;;;3.67;3.20;;;;;;;;;;5370523;26;20458;-79
2024/04/19 01:02:54;;;;;;;4.18;2.95;;;;;;;;;;5383798;26;20008;-78
2024/04/19 01:05:23;;;;;;;3.67;3.17;;;;;;;;;;5383997;26;20011;-79
2024/04/19 01:07:51;;;;;;;4.13;3.83;;;;;;;;;;5384119;26;20041;-79
2024/04/19 01:10:19;;;;;;;3.75;3.28;;;;;;;;;;5380540;26;20031;-78
2024/04/19 01:12:46;;;;;;;4.47;3.25;;;;;;;;;;5382741;26;20022;-78
2024/04/19 01:15:14;;;;;;;3.30;3.03;;;;;;;;;;5382556;26;20012;-78
2024/04/19 01:17:42;;;;;;;4.78;3.47;;;;;;;;;;5382269;26;20547;-78
2024/04/19 01:20:10;;;;;;;4.88;3.78;;;;;;;;;;5377249;26;20039;-79
2024/04/19 01:22:37;;;;;;;3.50;3.20;;;;;;;;;;5374665;26;20015;-77
2024/04/19 01:25:05;;;;;;;3.50;3.30;;;;;;;;;;5380579;26;20000;-78
2024/04/19 01:27:32;;;;;;;4.25;3.28;;;;;;;;;;5383110;26;20055;-79
2024/04/19 01:30:00;;;;;;;5.90;3.60;;;;;;;;;;5383246;26;20036;-78
2024/04/19 01:32:27;;;;;;;4.10;3.70;;;;;;;;;;5382857;26;20008;-79
2024/04/19 01:34:55;;;;;;;3.90;3.58;;;;;;;;;;5383008;26;20000;-79
2024/04/19 01:37:22;;;;;;;4.00;3.60;;;;;;;;;;5380816;26;20004;-79
2024/04/19 01:39:49;;;;;;;4.13;3.72;;;;;;;;;;5383043;26;20054;-79
2024/04/19 01:42:17;;;;;;;7.70;4.00;;;;;;;;;;5382620;26;20020;-79
2024/04/19 01:44:44;;;;;;;4.75;3.65;;;;;;;;;;5382767;26;20012;-79
2024/04/19 01:47:11;;;;;;;4.35;3.95;;;;;;;;;;5382367;26;20004;-78
2024/04/19 01:49:39;;;;;;;5.97;3.55;;;;;;;;;;5375331;26;19997;-79
2024/04/19 01:52:06;;;;;;;3.72;3.42;;;;;;;;;;5381018;26;20351;-79
2024/04/19 01:54:34;;;;;;;9.30;3.03;;;;;;;;;;5382605;26;20046;-78
2024/04/19 01:57:02;;;;;;;3.42;2.60;;;;;;;;;;5375016;26;20483;-79
2024/04/19 01:59:29;;;;;;;4.30;3.40;;;;;;;;;;5374616;26;20001;-79
2024/04/19 02:01:56;;;;;;;7.63;3.50;;;;;;;;;;5376345;26;20079;-79
2024/04/19 02:04:24;;;;;;;3.88;3.42;;;;;;;;;;5374835;26;20019;-79
2024/04/19 02:06:51;;;;;;;3.13;2.90;;;;;;;;;;5380884;26;20019;-78
2024/04/19 02:09:18;;;;;;;3.35;3.15;;;;;;;;;;5382327;26;20026;-79
2024/04/19 02:11:46;;;;;;;5.90;3.50;;;;;;;;;;5375763;26;20016;-79
2024/04/19 02:14:14;;;;;;;3.55;3.25;;;;;;;;;;5381257;26;20004;-79
2024/04/19 02:16:41;;;;;;;3.55;3.35;;;;;;;;;;5375310;26;20048;-79
2024/04/19 02:19:08;;;;;;;4.57;3.33;;;;;;;;;;5380816;26;20046;-79
2024/04/19 02:21:36;;;;;;;5.18;3.03;;;;;;;;;;5374545;26;20009;-79
2024/04/19 02:24:06;;;;;;;4.43;3.05;;;;;;;;;;5377799;26;20000;-79
2024/04/19 02:26:34;;;;;;;3.67;2.97;;;;;;;;;;5373920;26;20079;-78
2024/04/19 02:31:48;;;;;;;3.50;3.20;;;;;;;;;;5381322;26;20335;-78
2024/04/19 02:34:15;;;;;;;6.20;4.72;;;;;;;;;;5381121;26;20317;-79
2024/04/19 02:36:42;;;;;;;7.38;5.95;;;;;;;;;;5381193;26;20004;-77
2024/04/19 02:39:11;;;;;;;11.13;7.63;;;;;;;;;;5381253;26;20005;-79
2024/04/19 02:41:39;;;;;;;8.90;5.57;;;;;;;;;;5382141;26;20449;-79
2024/04/19 02:44:06;;;;;;;5.80;4.88;;;;;;;;;;5376487;26;20005;-79
2024/04/19 02:46:33;;;;;;;4.13;3.42;;;;;;;;;;5382618;26;20000;-79
2024/04/19 02:49:01;;;;;;;3.80;3.40;;;;;;;;;;5381586;26;20004;-79
2024/04/19 02:51:28;;;;;;;4.53;3.33;;;;;;;;;;5374279;26;20097;-79
2024/04/19 02:53:56;;;;;;;4.60;3.38;;;;;;;;;;5375413;26;20008;-79
2024/04/19 02:56:23;;;;;;;6.07;3.90;;;;;;;;;;5381861;26;20078;-79
2024/04/19 02:58:52;;;;;;;4.07;3.70;;;;;;;;;;5382152;26;20085;-79
2024/04/19 03:01:19;;;;;;;6.18;4.57;;;;;;;;;;5379543;26;20077;-79
2024/04/19 03:03:47;;;;;;;4.72;3.70;;;;;;;;;;5382014;26;20339;-79
2024/04/19 03:06:14;;;;;;;8.13;4.30;;;;;;;;;;5378405;26;19997;-78
2024/04/19 03:08:43;;;;;;;5.30;3.90;;;;;;;;;;5374543;26;20008;-79
2024/04/19 03:11:10;;;;;;;3.90;3.47;;;;;;;;;;5378608;26;20004;-79
2024/04/19 03:13:37;;;;;;;3.42;3.20;;;;;;;;;;5384418;26;20021;-79
2024/04/19 03:16:08;;;;;;;5.35;3.67;;;;;;;;;;5385341;26;20093;-79
2024/04/19 03:18:36;;;;;;;5.05;3.20;;;;;;;;;;5378191;26;20016;-80
2024/04/19 03:21:03;;;;;;;4.35;3.95;;;;;;;;;;5381488;26;20032;-79
2024/04/19 03:23:30;;;;;;;3.22;3.00;;;;;;;;;;5378498;26;20005;-79
2024/04/19 03:25:58;;;;;;;4.78;3.47;;;;;;;;;;5379732;26;20012;-79
2024/04/19 03:28:25;;;;;;;4.53;3.75;;;;;;;;;;5386631;26;20000;-79
2024/04/19 03:30:53;;;;;;;3.85;3.45;;;;;;;;;;5387329;26;20015;-79
2024/04/19 03:33:20;;;;;;;4.70;4.30;;;;;;;;;;5383336;26;20000;-79
2024/04/19 03:35:47;;;;;;;4.35;3.90;;;;;;;;;;5378008;26;20005;-79
2024/04/19 03:38:15;;;;;;;3.80;3.50;;;;;;;;;;5383684;26;20077;-79
2024/04/19 03:40:52;;;;;;;4.22;3.83;;;;;;;;;;5377782;26;20041;-79
2024/04/19 03:43:19;;;;;;;3.90;3.38;;;;;;;;;;5384750;26;20040;-79
2024/04/19 03:45:46;;;;;;;4.45;4.05;;;;;;;;;;5386431;26;20077;-80
2024/04/19 03:48:14;;;;;;;4.18;3.88;;;;;;;;;;5381970;26;20001;-80
2024/04/19 03:50:46;;;;;;;5.25;4.50;;;;;;;;;;5385542;26;20008;-79
2024/04/19 03:53:13;;;;;;;5.10;4.60;;;;;;;;;;5384912;26;20004;-80
2024/04/19 03:55:41;;;;;;;3.95;3.53;;;;;;;;;;5390415;26;20019;-78
2024/04/19 03:58:08;;;;;;;6.45;4.10;;;;;;;;;;5391054;26;20000;-79
2024/04/19 04:00:39;;;;;;;4.35;3.95;;;;;;;;;;5377421;26;20013;-79
2024/04/19 04:03:07;;;;;;;4.10;3.80;;;;;;;;;;5380203;26;20397;-79
2024/04/19 04:05:34;;;;;;;5.13;4.22;;;;;;;;;;5376970;26;20029;-80
2024/04/19 04:08:02;;;;;;;10.10;7.35;;;;;;;;;;5382736;26;20015;-79
2024/04/19 04:10:29;;;;;;;11.00;8.13;;;;;;;;;;5384342;26;20060;-78
2024/04/19 04:12:56;;;;;;;16.67;8.40;;;;;;;;;;5384185;26;20000;-78
2024/04/19 04:15:24;;;;;;;10.68;8.60;;;;;;;;;;5376732;26;20020;-79
2024/04/19 04:17:52;;;;;;;20.60;6.50;;;;;;;;;;5376431;26;20001;-79
2024/04/19 04:20:19;;;;;;;19.20;7.60;;;;;;;;;;5381857;26;20016;-78
2024/04/19 04:22:46;;;;;;;8.18;5.72;;;;;;;;;;5377122;26;20013;-78
2024/04/19 04:25:14;;;;;;;7.90;6.30;;;;;;;;;;5382454;26;20077;-79
2024/04/19 04:27:41;;;;;;;9.57;6.45;;;;;;;;;;5376367;26;20048;-78
2024/04/19 04:30:09;;;;;;;10.50;7.43;;;;;;;;;;5380411;26;20019;-79
2024/04/19 04:32:36;;;;;;;13.57;7.88;;;;;;;;;;5384049;26;20012;-78
2024/04/19 04:35:03;;;;;;;9.20;7.68;;;;;;;;;;5383846;26;20019;-79
2024/04/19 04:37:34;;;;;;;11.13;7.15;;;;;;;;;;5375966;26;20001;-78
2024/04/19 04:40:02;;;;;;;8.10;7.30;;;;;;;;;;5378185;26;20019;-79
2024/04/19 04:42:29;;;;;;;15.07;8.32;;;;;;;;;;5383850;26;20051;-79
2024/04/19 04:44:57;;;;;;;12.80;8.13;;;;;;;;;;5383798;26;20015;-79
2024/04/19 04:47:24;;;;;;;10.18;8.23;;;;;;;;;;5376121;26;20019;-79
2024/04/19 04:49:51;;;;;;;9.52;7.50;;;;;;;;;;5382151;26;20343;-79
2024/04/19 04:52:19;;;;;;;12.23;7.53;;;;;;;;;;5383285;26;20008;-79
2024/04/19 04:54:46;;;;;;;7.95;7.15;;;;;;;;;;5375760;26;20498;-78
2024/04/19 04:57:14;;;;;;;8.68;6.25;;;;;;;;;;5381465;26;20057;-78
2024/04/19 04:59:41;;;;;;;6.75;6.10;;;;;;;;;;5383375;26;20004;-79
2024/04/19 05:02:09;;;;;;;7.10;5.57;;;;;;;;;;5383322;26;20011;-78
2024/04/19 05:04:36;;;;;;;7.07;4.75;;;;;;;;;;5375327;26;20021;-79
2024/04/19 05:07:04;;;;;;;7.65;4.75;;;;;;;;;;5378600;26;20000;-79
2024/04/19 05:09:31;;;;;;;5.70;4.40;;;;;;;;;;5383762;26;20062;-79
2024/04/19 05:11:59;;;;;;;4.32;3.92;;;;;;;;;;5376923;26;20013;-80
2024/04/19 05:14:26;;;;;;;5.90;4.00;;;;;;;;;;5369895;26;20081;-80
2024/04/19 05:16:53;;;;;;;4.60;3.50;;;;;;;;;;5384644;26;20000;-78
2024/04/19 05:19:20;;;;;;;18.17;4.75;;;;;;;;;;5381285;26;20012;-81
2024/04/19 05:21:48;;;;;;;4.53;3.60;;;;;;;;;;5376102;26;20012;-79
2024/04/19 05:24:15;;;;;;;6.65;3.60;;;;;;;;;;5381258;26;20039;-80
2024/04/19 05:26:42;;;;;;;4.45;3.65;;;;;;;;;;5384029;26;20014;-81
2024/04/19 05:29:10;;;;;;;5.07;3.40;;;;;;;;;;5378327;26;20016;-79
2024/04/19 05:31:37;;;;;;;4.68;2.72;;;;;;;;;;5376064;26;20001;-79
2024/04/19 05:34:05;;;;;;;3.22;3.03;;;;;;;;;;5381078;26;20332;-78
2024/04/19 05:36:32;;;;;;;6.22;3.40;;;;;;;;;;5374791;26;20026;-80
2024/04/19 05:39:00;;;;;;;10.50;3.35;;;;;;;;;;5378469;26;20019;-78
2024/04/19 05:41:27;;;;;;;3.42;3.05;;;;;;;;;;5383759;26;20007;-79
2024/04/19 05:43:54;;;;;;;4.05;3.30;;;;;;;;;;5375678;26;20553;-79
2024/04/19 05:46:22;;;;;;;4.95;3.38;;;;;;;;;;5383074;26;20008;-82
2024/04/19 05:48:49;;;;;;;3.33;3.05;;;;;;;;;;5376589;26;20005;-80
2024/04/19 05:51:16;;;;;;;3.70;3.50;;;;;;;;;;5381746;26;20422;-78
2024/04/19 05:53:44;;;;;;;3.42;3.17;;;;;;;;;;5384066;26;20172;-80
2024/04/19 05:56:11;;;;;;;3.70;3.50;;;;;;;;;;5378624;26;20000;-80
2024/04/19 05:58:38;;;;;;;3.67;3.40;;;;;;;;;;5383371;26;20008;-78
2024/04/19 06:01:06;;;;;;;2.88;2.78;;;;;;;;;;5382870;26;20016;-79
2024/04/19 06:03:33;;;;;;;3.70;3.50;;;;;;;;;;5374689;26;20043;-78
2024/04/19 06:06:01;;;;;;;5.75;3.85;;;;;;;;;;5377238;26;20417;-79
2024/04/19 06:08:28;;;;;;;3.90;3.63;;;;;;;;;;5375359;26;20005;-79
2024/04/19 06:10:55;;;;;;;4.60;4.20;;;;;;;;;;5381159;26;20000;-79
2024/04/19 06:13:22;;;;;;;3.97;3.67;;;;;;;;;;5382982;26;20544;-79
2024/04/19 06:15:51;;;;;;;3.95;3.65;;;;;;;;;;5382844;26;19996;-79
2024/04/19 06:18:18;;;;;;;5.03;3.72;;;;;;;;;;5379492;26;20017;-78
2024/04/19 06:20:46;;;;;;;4.65;4.25;;;;;;;;;;5383266;26;20539;-79
2024/04/19 06:23:13;;;;;;;4.93;4.38;;;;;;;;;;5381912;26;20063;-79
2024/04/19 06:25:41;;;;;;;4.10;3.70;;;;;;;;;;5381948;26;20011;-80
2024/04/19 06:28:08;;;;;;;4.82;3.60;;;;;;;;;;5374977;26;20045;-79
2024/04/19 06:30:35;;;;;;;3.42;3.22;;;;;;;;;;5374649;26;20079;-79
2024/04/19 06:33:03;;;;;;;3.92;3.38;;;;;;;;;;5377759;26;20004;-80
2024/04/19 06:35:32;;;;;;;3.65;3.35;;;;;;;;;;5375160;26;20007;-78
2024/04/19 06:38:00;;;;;;;3.45;3.15;;;;;;;;;;5380174;26;20004;-78
2024/04/19 06:40:27;;;;;;;3.35;3.15;;;;;;;;;;5374804;26;20001;-79
2024/04/19 06:42:55;;;;;;;3.08;2.88;;;;;;;;;;5375332;26;20016;-81
2024/04/19 06:45:22;;;;;;;2.72;2.53;;;;;;;;;;5379757;26;20474;-80
2024/04/19 06:47:49;;;;;;;3.10;2.90;;;;;;;;;;5373564;26;20008;-80
2024/04/19 06:50:17;;;;;;;2.90;2.67;;;;;;;;;;5381557;26;20012;-80
2024/04/19 06:52:44;;;;;;;2.88;2.75;;;;;;;;;;5383084;26;20014;-79
2024/04/19 06:55:11;;;;;;;2.53;2.33;;;;;;;;;;5382729;26;20073;-80
2024/04/19 06:57:39;;;;;;;2.70;2.50;;;;;;;;;;5382564;26;20336;-81
2024/04/19 07:00:06;;;;;;;2.20;2.10;;;;;;;;;;5382097;26;20005;-80
2024/04/19 07:02:53;;;;;;;2.63;2.53;;;;;;;;;;5382246;26;20032;-79
2024/04/19 07:05:21;;;;;;;2.35;1.88;;;;;;;;;;5380006;26;20012;-79
2024/04/19 07:07:48;;;;;;;1.90;1.80;;;;;;;;;;5382042;26;20050;-80
2024/04/19 07:10:16;;;;;;;1.85;1.75;;;;;;;;;;5382026;26;20024;-78
2024/04/19 07:12:43;;;;;;;1.90;1.90;;;;;;;;;;5382152;26;20008;-81
2024/04/19 07:15:13;;;;;;;1.67;1.67;;;;;;;;;;5377450;26;20475;-80
2024/04/19 07:17:40;;;;;;;2.88;1.77;;;;;;;;;;5381503;26;20000;-79
2024/04/19 07:20:08;;;;;;;2.00;1.90;;;;;;;;;;5381973;26;20469;-78
2024/04/19 07:22:36;;;;;;;2.00;1.90;;;;;;;;;;5381761;26;20000;-78
2024/04/19 07:25:03;;;;;;;2.20;2.00;;;;;;;;;;5381568;26;20004;-80
2024/04/19 07:27:30;;;;;;;1.90;1.80;;;;;;;;;;5381814;26;19996;-80
2024/04/19 07:30:09;;;;;;;1.80;1.70;;;;;;;;;;5373474;26;20041;-78
2024/04/19 07:32:36;;;;;;;1.80;1.70;;;;;;;;;;5381364;26;20044;-79
2024/04/19 07:35:04;;;;;;;1.80;1.70;;;;;;;;;;5381627;26;20081;-79
2024/04/19 07:37:31;;;;;;;1.70;1.60;;;;;;;;;;5381083;26;20014;-78
2024/04/19 07:39:58;;;;;;;1.35;1.25;;;;;;;;;;5373706;26;20541;-79
2024/04/19 07:42:28;;;;;;;1.33;1.33;;;;;;;;;;5367534;26;20040;-79
2024/04/19 07:44:56;;;;;;;1.95;1.33;;;;;;;;;;5381718;26;20015;-78
2024/04/19 07:47:23;;;;;;;1.70;1.60;;;;;;;;;;5380738;26;20000;-79
2024/04/19 07:49:50;;;;;;;2.65;1.58;;;;;;;;;;5383911;26;20000;-79
2024/04/19 07:52:18;;;;;;;1.20;1.20;;;;;;;;;;5383890;26;20466;-79
2024/04/19 07:54:47;;;;;;;1.13;1.13;;;;;;;;;;5383136;26;20015;-80
2024/04/19 07:57:14;;;;;;;1.42;1.10;;;;;;;;;;5378109;26;20019;-80
2024/04/19 07:59:42;;;;;;;1.90;1.80;;;;;;;;;;5376242;26;20008;-79
2024/04/19 08:02:09;;;;;;;1.98;1.20;;;;;;;;;;5383317;26;20498;-79
2024/04/19 08:04:36;;;;;;;1.20;1.20;;;;;;;;;;5377503;26;20005;-78
2024/04/19 08:07:04;;;;;;;1.98;1.02;;;;;;;;;;5379654;26;20467;-80
2024/04/19 08:09:31;;;;;;;1.63;1.60;;;;;;;;;;5384672;26;20004;-79
2024/04/19 08:11:59;;;;;;;1.20;1.20;;;;;;;;;;5385089;26;20443;-80
2024/04/19 08:14:27;;;;;;;0.70;0.70;;;;;;;;;;5385267;26;20471;-78
2024/04/19 08:16:55;;;;;;;0.88;0.88;;;;;;;;;;5385435;26;19996;-80
2024/04/19 08:19:22;;;;;;;2.15;0.80;;;;;;;;;;5384846;26;20015;-79
2024/04/19 08:21:49;;;;;;;0.60;0.60;;;;;;;;;;5385838;26;20477;-82
2024/04/19 08:24:17;;;;;;;0.50;0.50;;;;;;;;;;5384595;26;20023;-80
2024/04/19 08:26:47;;;;;;;0.60;0.60;;;;;;;;;;5385154;26;20004;-80
2024/04/19 08:29:14;;;;;;;0.60;0.60;;;;;;;;;;5385012;26;20361;-79
2024/04/19 08:31:55;;;;;;;0.60;0.60;;;;;;;;;;5384332;26;20008;-78
2024/04/19 08:34:23;;;;;;;0.50;0.50;;;;;;;;;;5382441;26;20004;-79
2024/04/19 08:36:50;;;;;;;1.60;0.80;;;;;;;;;;5377003;26;20082;-80
2024/04/19 08:39:17;;;;;;;0.52;0.52;;;;;;;;;;5382869;26;20049;-80
2024/04/19 08:41:48;;;;;;;0.57;0.57;;;;;;;;;;5384923;26;20032;-79
2024/04/19 08:44:16;;;;;;;1.45;0.88;;;;;;;;;;5380705;26;20079;-79
2024/04/19 08:46:44;;;;;;;0.70;0.70;;;;;;;;;;5376737;26;20005;-78
2024/04/19 08:49:12;;;;;;;0.70;0.70;;;;;;;;;;5381104;26;20074;-79
2024/04/19 08:51:40;;;;;;;1.25;1.08;;;;;;;;;;5383794;26;20004;-78
2024/04/19 08:54:31;;;;;;;2.35;0.80;;;;;;;;;;5384012;26;20057;-80
2024/04/19 08:56:59;;;;;;;0.63;0.50;;;;;;;;;;5383371;26;20381;-78
2024/04/19 08:59:26;;;;;;;0.50;0.50;;;;;;;;;;5383788;26;20539;-78
2024/04/19 09:01:54;;;;;;;1.23;0.82;;;;;;;;;;5383789;26;20020;-78
2024/04/19 09:04:21;;;;;;;1.77;1.02;;;;;;;;;;5383687;26;20080;-78
2024/04/19 09:06:49;;;;;;;0.30;0.30;;;;;;;;;;5383878;26;20001;-79
2024/04/19 09:09:16;;;;;;;0.40;0.40;;;;;;;;;;5380234;26;20459;-78
2024/04/19 09:11:48;;;;;;;0.63;0.63;;;;;;;;;;5383023;26;20343;-78
2024/04/19 09:14:16;;;;;;;0.40;0.40;;;;;;;;;;5384425;26;20404;-80
2024/04/19 09:16:43;;;;;;;0.60;0.57;;;;;;;;;;5383627;26;20008;-78
2024/04/19 09:19:11;;;;;;;0.20;0.20;;;;;;;;;;5384038;26;20004;-78
2024/04/19 09:21:38;;;;;;;0.82;0.38;;;;;;;;;;5376409;26;20074;-80
2024/04/19 09:24:08;;;;;;;0.40;0.40;;;;;;;;;;5379849;26;20005;-78
2024/04/19 09:26:37;;;;;;;0.25;0.25;;;;;;;;;;5383395;26;20027;-79
2024/04/19 09:29:06;;;;;;;0.30;0.30;;;;;;;;;;5377561;26;20078;-79
2024/04/19 09:31:33;;;;;;;0.30;0.30;;;;;;;;;;5375831;26;20021;-79
2024/04/19 09:34:00;;;;;;;0.20;0.20;;;;;;;;;;5381991;26;20004;-79
2024/04/19 09:36:28;;;;;;;0.20;0.20;;;;;;;;;;5383292;26;20000;-79
2024/04/19 09:38:56;;;;;;;0.20;0.17;;;;;;;;;;5383753;26;20004;-79
2024/04/19 09:41:26;;;;;;;0.40;0.30;;;;;;;;;;5383836;26;20081;-78
2024/04/19 09:43:58;;;;;;;0.28;0.28;;;;;;;;;;5376536;26;20414;-78
2024/04/19 09:46:29;;;;;;;1.45;0.20;;;;;;;;;;5369775;26;20016;-79
2024/04/19 09:49:01;;;;;;;0.43;0.20;;;;;;;;;;5383899;26;20012;-79
2024/04/19 09:51:37;;;;;;;0.17;0.17;;;;;;;;;;5375589;26;20483;-79
2024/04/19 09:54:09;;;;;;;0.20;0.20;;;;;;;;;;5382176;26;20016;-79
2024/04/19 09:56:50;;;;;;;0.20;0.20;;;;;;;;;;5376060;26;20073;-80
2024/04/19 09:59:19;;;;;;;0.30;0.30;;;;;;;;;;5381370;26;20072;-78
2024/04/19 10:01:47;;;;;;;0.10;0.10;;;;;;;;;;5383206;26;20077;-78
2024/04/19 10:04:14;;;;;;;0.10;0.10;;;;;;;;;;5383338;26;20000;-81
2024/04/19 10:06:42;;;;;;;0.20;0.20;;;;;;;;;;5375630;26;20005;-80
2024/04/19 10:09:17;;;;;;;0.10;0.10;;;;;;;;;;5380198;26;20000;-80
2024/04/19 10:11:46;;;;;;;2.08;0.20;;;;;;;;;;5375916;26;20004;-80
2024/04/19 10:14:13;;;;;;;0.20;0.10;;;;;;;;;;5381045;26;20547;-79
2024/04/19 10:16:41;;;;;;;0.17;0.10;;;;;;;;;;5375433;26;20001;-79
2024/04/19 10:19:12;;;;;;;0.10;0.10;;;;;;;;;;5381804;26;20351;-80
2024/04/19 10:21:40;;;;;;;0.20;0.20;;;;;;;;;;5375905;26;20016;-80
2024/04/19 10:24:11;;;;;;;0.10;0.10;;;;;;;;;;5382505;26;20417;-79
2024/04/19 10:26:40;;;;;;;0.45;0.10;;;;;;;;;;5383827;26;20008;-80
2024/04/19 10:29:07;;;;;;;0.10;0.10;;;;;;;;;;5378047;26;20009;-81
2024/04/19 10:31:35;;;;;;;0.38;0.10;;;;;;;;;;5383287;26;20008;-80
2024/04/19 10:34:02;;;;;;;0.20;0.20;;;;;;;;;;5383272;26;20004;-79
2024/04/19 10:36:33;;;;;;;0.10;0.10;;;;;;;;;;5375777;26;20004;-81
2024/04/19 10:39:01;;;;;;;0.15;0.15;;;;;;;;;;5377465;26;20004;-79
2024/04/19 10:41:28;;;;;;;0.10;0.10;;;;;;;;;;5384347;26;20004;-80
2024/04/19 10:43:55;;;;;;;0.20;0.20;;;;;;;;;;5376591;26;20005;-81
2024/04/19 10:46:23;;;;;;;0.30;0.03;;;;;;;;;;5383289;26;20008;-81
2024/04/19 10:48:51;;;;;;;0.05;0.05;;;;;;;;;;5384479;26;20539;-79
2024/04/19 10:51:20;;;;;;;0.13;0.13;;;;;;;;;;5385989;26;20005;-80
2024/04/19 10:53:47;;;;;;;0.10;0.10;;;;;;;;;;5382572;26;20015;-80
2024/04/19 10:56:14;;;;;;;0.10;0.10;;;;;;;;;;5383160;26;20455;-79
2024/04/19 10:58:42;;;;;;;0.20;0.20;;;;;;;;;;5381463;26;20078;-78
2024/04/19 11:01:09;;;;;;;1.27;0.60;;;;;;;;;;5381791;26;20081;-79
2024/04/19 11:03:37;;;;;;;1.55;0.20;;;;;;;;;;5373844;26;20001;-77
2024/04/19 11:06:05;;;;;;;0.17;0.17;;;;;;;;;;5376624;26;20062;-78
2024/04/19 11:08:33;;;;;;;0.17;0.10;;;;;;;;;;5379739;26;20544;-78
2024/04/19 11:11:00;;;;;;;0.10;0.10;;;;;;;;;;5373911;26;20009;-78
2024/04/19 11:13:28;;;;;;;0.10;0.10;;;;;;;;;;5381835;26;20001;-79
2024/04/19 11:15:56;;;;;;;0.17;0.17;;;;;;;;;;5382585;26;20005;-79
2024/04/19 11:18:27;;;;;;;0.10;0.10;;;;;;;;;;5382166;26;20001;-78
2024/04/19 11:20:56;;;;;;;0.10;0.10;;;;;;;;;;5373918;26;20364;-78
2024/04/19 11:23:35;;;;;;;0.35;0.10;;;;;;;;;;5369426;26;20008;-79
2024/04/19 11:26:02;;;;;;;0.10;0.10;;;;;;;;;;5381225;26;20077;-78
2024/04/19 11:28:29;;;;;;;0.10;0.10;;;;;;;;;;5383140;26;20073;-79
2024/04/19 11:30:58;;;;;;;0.20;0.20;;;;;;;;;;5381554;26;20073;-80
2024/04/19 11:33:25;;;;;;;0.68;0.17;;;;;;;;;;5374426;26;20058;-80
2024/04/19 11:35:53;;;;;;;0.10;0.10;;;;;;;;;;5378125;26;20005;-79
2024/04/19 11:38:22;;;;;;;0.10;0.10;;;;;;;;;;5385339;26;20004;-79
2024/04/19 11:40:51;;;;;;;0.20;0.20;;;;;;;;;;5377554;26;20016;-79
2024/04/19 11:43:20;;;;;;;0.10;0.10;;;;;;;;;;5384082;26;20012;-79
2024/04/19 11:45:47;;;;;;;0.08;0.08;;;;;;;;;;5384703;26;20418;-79
2024/04/19 11:48:25;;;;;;;0.10;0.10;;;;;;;;;;5384913;26;20082;-81
2024/04/19 11:50:53;;;;;;;0.30;0.30;;;;;;;;;;5376833;26;20074;-79
2024/04/19 11:53:21;;;;;;;0.17;0.13;;;;;;;;;;5382659;26;20082;-78
2024/04/19 11:55:50;;;;;;;0.10;0.10;;;;;;;;;;5376680;26;20029;-79
2024/04/19 11:58:18;;;;;;;0.05;0.05;;;;;;;;;;5382654;26;20032;-79
2024/04/19 12:00:48;;;;;;;0.25;0.22;;;;;;;;;;5384256;26;20008;-78
2024/04/19 12:03:16;;;;;;;0.35;0.08;;;;;;;;;;5383810;26;20012;-79
2024/04/19 12:05:43;;;;;;;0.35;0.20;;;;;;;;;;5376535;26;20016;-79
2024/04/19 12:08:11;;;;;;;0.20;0.15;;;;;;;;;;5380881;26;20012;-80
2024/04/19 12:10:38;;;;;;;0.20;0.20;;;;;;;;;;5384754;26;20000;-78
2024/04/19 12:13:08;;;;;;;0.47;0.47;;;;;;;;;;5384008;26;20000;-78
2024/04/19 12:15:55;;;;;;;0.10;0.10;;;;;;;;;;5372753;26;20009;-79
2024/04/19 12:18:42;;;;;;;0.00;0.00;;;;;;;;;;5374603;26;20015;-79
2024/04/19 12:21:11;;;;;;;0.03;0.03;;;;;;;;;;5380907;26;20083;-78
2024/04/19 12:23:40;;;;;;;0.00;0.00;;;;;;;;;;5377790;26;20016;-80
2024/04/19 12:26:10;;;;;;;0.00;0.00;;;;;;;;;;5381083;26;20004;-80
2024/04/19 12:28:38;;;;;;;0.03;0.03;;;;;;;;;;5384458;26;20001;-79
2024/04/19 12:31:19;;;;;;;0.10;0.10;;;;;;;;;;5384449;26;20026;-79
2024/04/19 12:33:46;;;;;;;0.47;0.10;;;;;;;;;;5384556;26;20560;-78
2024/04/19 12:36:14;;;;;;;0.00;0.00;;;;;;;;;;5380726;26;20016;-79
2024/04/19 12:38:42;;;;;;;0.10;0.10;;;;;;;;;;5383202;26;20000;-79
2024/04/19 12:41:09;;;;;;;0.25;0.10;;;;;;;;;;5381993;26;20004;-80
2024/04/19 12:43:37;;;;;;;0.00;0.00;;;;;;;;;;5384266;26;20479;-80
2024/04/19 12:46:05;;;;;;;0.00;0.00;;;;;;;;;;5381229;26;20036;-79
2024/04/19 12:48:32;;;;;;;0.20;0.13;;;;;;;;;;5383382;26;20000;-80
2024/04/19 12:51:00;;;;;;;0.00;0.00;;;;;;;;;;5381649;26;20044;-78
2024/04/19 12:53:27;;;;;;;0.00;0.00;;;;;;;;;;5375345;26;20005;-79
2024/04/19 12:55:55;;;;;;;0.10;0.10;;;;;;;;;;5376867;26;20004;-78
2024/04/19 12:58:22;;;;;;;0.10;0.10;;;;;;;;;;5381383;26;20016;-78
2024/04/19 13:00:50;;;;;;;0.00;0.00;;;;;;;;;;5383596;26;20004;-78
2024/04/19 13:03:17;;;;;;;0.00;0.00;;;;;;;;;;5382465;26;20004;-79
2024/04/19 13:05:45;;;;;;;0.55;0.10;;;;;;;;;;5376132;26;20471;-79
2024/04/19 13:08:13;;;;;;;0.47;0.00;;;;;;;;;;5380919;26;20080;-79
2024/04/19 13:10:41;;;;;;;0.08;0.08;;;;;;;;;;5383104;26;20015;-78
2024/04/19 13:13:12;;;;;;;0.00;0.00;;;;;;;;;;5380575;26;20459;-79
2024/04/19 13:15:40;;;;;;;0.35;0.00;;;;;;;;;;5382368;26;20011;-78
2024/04/19 13:18:08;;;;;;;0.10;0.05;;;;;;;;;;5382652;26;20543;-79
2024/04/19 13:20:36;;;;;;;0.00;0.00;;;;;;;;;;5383440;26;20018;-80
2024/04/19 13:23:03;;;;;;;0.00;0.00;;;;;;;;;;5382899;26;20000;-80
2024/04/19 13:25:30;;;;;;;0.00;0.00;;;;;;;;;;5382489;26;20004;-79
2024/04/19 13:27:58;;;;;;;0.10;0.10;;;;;;;;;;5382592;26;20000;-78
2024/04/19 13:30:25;;;;;;;0.10;0.10;;;;;;;;;;5383222;26;20335;-78
2024/04/19 13:32:53;;;;;;;0.30;0.30;;;;;;;;;;5383277;26;20022;-78
2024/04/19 13:35:20;;;;;;;0.50;0.50;;;;;;;;;;5382958;26;20017;-80
2024/04/19 13:37:47;;;;;;;0.20;0.20;;;;;;;;;;5378787;26;20074;-80
2024/04/19 13:40:15;;;;;;;0.20;0.20;;;;;;;;;;5378323;26;20539;-80
2024/04/19 13:42:42;;;;;;;0.63;0.05;;;;;;;;;;5382770;26;20000;-80
2024/04/19 13:45:10;;;;;;;0.20;0.10;;;;;;;;;;5382839;26;20004;-79
2024/04/19 13:47:37;;;;;;;0.10;0.10;;;;;;;;;;5383078;26;20069;-77
2024/04/19 13:50:06;;;;;;;0.00;0.00;;;;;;;;;;5380818;26;20401;-79
2024/04/19 13:52:33;;;;;;;0.10;0.10;;;;;;;;;;5379908;26;20447;-79
2024/04/19 13:55:01;;;;;;;0.13;0.13;;;;;;;;;;5382393;26;20078;-79
2024/04/19 13:57:28;;;;;;;0.15;0.00;;;;;;;;;;5382517;26;20073;-80
2024/04/19 13:59:56;;;;;;;0.00;0.00;;;;;;;;;;5382430;26;20018;-80
2024/04/19 14:02:23;;;;;;;0.10;0.10;;;;;;;;;;5379791;26;20077;-79
2024/04/19 14:04:50;;;;;;;0.10;0.10;;;;;;;;;;5374321;26;20078;-81
2024/04/19 14:07:18;;;;;;;0.20;0.20;;;;;;;;;;5379289;26;20074;-79
2024/04/19 14:09:45;;;;;;;0.10;0.10;;;;;;;;;;5382681;26;20015;-79
2024/04/19 14:12:13;;;;;;;0.30;0.10;;;;;;;;;;5383134;26;20073;-79
2024/04/19 14:14:40;;;;;;;0.00;0.00;;;;;;;;;;5374692;26;20591;-79
2024/04/19 14:17:07;;;;;;;0.00;0.00;;;;;;;;;;5375818;26;20052;-77
2024/04/19 14:19:35;;;;;;;0.00;0.00;;;;;;;;;;5379766;26;20001;-81
2024/04/19 14:22:02;;;;;;;0.00;0.00;;;;;;;;;;5380227;26;20016;-79
2024/04/19 14:24:30;;;;;;;0.00;0.00;;;;;;;;;;5381199;26;20340;-79
2024/04/19 14:26:57;;;;;;;0.10;0.10;;;;;;;;;;5382044;26;20041;-78
2024/04/19 14:29:25;;;;;;;0.08;0.08;;;;;;;;;;5375100;26;20001;-80
2024/04/19 14:31:52;;;;;;;0.05;0.05;;;;;;;;;;5372573;26;20126;-79
2024/04/19 14:34:19;;;;;;;0.00;0.00;;;;;;;;;;5383209;26;20000;-79
2024/04/19 14:36:47;;;;;;;0.00;0.00;;;;;;;;;;5383018;26;20001;-80
2024/04/19 14:39:15;;;;;;;0.00;0.00;;;;;;;;;;5381905;26;20385;-80
2024/04/19 14:41:42;;;;;;;0.00;0.00;;;;;;;;;;5374685;26;20083;-79
2024/04/19 14:44:13;;;;;;;0.25;0.10;;;;;;;;;;5378132;26;20472;-81
2024/04/19 14:46:40;;;;;;;0.10;0.10;;;;;;;;;;5374092;26;20009;-80
2024/04/19 14:49:07;;;;;;;0.00;0.00;;;;;;;;;;5369926;26;20013;-79
2024/04/19 14:51:35;;;;;;;0.10;0.10;;;;;;;;;;5370113;26;20359;-77